Time;durP1;ratioP1;P1;durP2;ratioP2;P2;SDS_P1;SDS_P2;PMS_P1;PMS_P2;Temp;Humidity;BMP_temperature;BMP_pressure;BME280_temperature;BME280_humidity;BME280_pressure;Samples;Min_cycle;Max_cycle;Signal;HPM_P1;HPM_P2
2023/04/18 00:01:51;;;;;;;20.63;18.50;;;;;;;6.35;100.00;103141.97;5048052;28;20467;-45
2023/04/18 00:04:20;;;;;;;19.60;17.70;;;;;;;6.36;100.00;103134.88;5051108;28;20799;-43
2023/04/18 00:06:49;;;;;;;20.57;18.37;;;;;;;6.34;100.00;103142.91;5051326;28;20446;-47
2023/04/18 00:09:17;;;;;;;20.50;18.50;;;;;;;6.34;100.00;103142.06;5051188;28;20929;-47
2023/04/18 00:11:45;;;;;;;22.13;17.30;;;;;;;6.32;100.00;103138.69;5050358;28;20478;-45
2023/04/18 00:14:13;;;;;;;18.97;17.10;;;;;;;6.29;100.00;103141.56;5051203;28;20509;-46
2023/04/18 00:16:41;;;;;;;19.30;17.50;;;;;;;6.28;100.00;103139.84;5051117;28;20435;-46
2023/04/18 00:19:08;;;;;;;18.47;16.63;;;;;;;6.24;100.00;103139.25;5051070;28;20443;-46
2023/04/18 00:21:43;;;;;;;19.17;16.60;;;;;;;6.22;100.00;103135.84;5050486;28;20477;-48
2023/04/18 00:24:11;;;;;;;18.57;16.77;;;;;;;6.21;100.00;103131.53;5051211;28;20435;-41
2023/04/18 00:26:41;;;;;;;27.10;17.87;;;;;;;6.18;100.00;103137.03;5051020;28;20527;-44
2023/04/18 00:29:08;;;;;;;18.20;16.40;;;;;;;6.16;100.00;103138.94;5050939;28;20437;-46
2023/04/18 00:31:36;;;;;;;18.37;16.47;;;;;;;6.15;100.00;103133.75;5048290;28;20470;-49
2023/04/18 00:34:04;;;;;;;17.37;15.70;;;;;;;6.11;100.00;103133.13;5051355;28;20427;-46
2023/04/18 00:36:31;;;;;;;17.60;16.00;;;;;;;6.09;100.00;103129.75;5051164;28;20439;-50
2023/04/18 00:39:00;;;;;;;18.33;16.43;;;;;;;6.06;100.00;103128.13;5054215;28;20458;-48
2023/04/18 00:41:30;;;;;;;17.00;15.30;;;;;;;6.05;100.00;103133.56;5054210;28;20467;-48
2023/04/18 00:43:57;;;;;;;17.90;16.13;;;;;;;6.04;100.00;103131.84;5054411;28;20526;-43
2023/04/18 00:46:25;;;;;;;19.33;17.50;;;;;;;6.01;100.00;103124.97;5054608;28;20431;-48
2023/04/18 00:48:53;;;;;;;17.83;16.13;;;;;;;6.00;100.00;103125.91;5054611;28;20454;-45
2023/04/18 00:51:21;;;;;;;17.90;16.07;;;;;;;6.00;100.00;103131.22;5053788;28;20470;-50
2023/04/18 00:53:48;;;;;;;17.83;16.07;;;;;;;5.97;100.00;103131.44;5054349;28;20489;-44
2023/04/18 00:56:18;;;;;;;17.87;16.30;;;;;;;5.98;100.00;103127.84;5054378;28;20466;-46
2023/04/18 00:58:45;;;;;;;16.87;15.23;;;;;;;5.96;100.00;103132.41;5054562;28;20440;-48
2023/04/18 01:01:13;;;;;;;18.50;16.70;;;;;;;5.95;100.00;103128.06;5053688;28;20459;-45
2023/04/18 01:03:41;;;;;;;18.30;16.70;;;;;;;5.95;100.00;103138.66;5054003;28;20434;-49
2023/04/18 01:06:09;;;;;;;16.30;14.83;;;;;;;5.92;100.00;103133.56;5054085;28;20971;-45
2023/04/18 01:08:37;;;;;;;18.13;15.87;;;;;;;5.92;100.00;103132.72;5053991;28;20435;-46
2023/04/18 01:11:05;;;;;;;16.43;14.77;;;;;;;5.93;100.00;103132.63;5053156;28;20984;-45
2023/04/18 01:13:33;;;;;;;18.50;16.57;;;;;;;5.92;100.00;103130.94;5053764;28;20488;-45
2023/04/18 01:16:01;;;;;;;18.20;16.40;;;;;;;5.92;100.00;103132.72;5054177;28;20427;-45
2023/04/18 01:18:30;;;;;;;16.97;15.37;;;;;;;5.93;100.00;103127.34;5053888;28;20463;-47
2023/04/18 01:20:59;;;;;;;17.80;16.00;;;;;;;5.93;100.00;103140.56;5053328;28;20455;-45
2023/04/18 01:23:26;;;;;;;17.40;15.70;;;;;;;5.94;100.00;103141.44;5053462;28;20777;-43
2023/04/18 01:25:56;;;;;;;19.23;16.00;;;;;;;5.94;100.00;103144.91;5053925;28;20438;-45
2023/04/18 01:28:26;;;;;;;17.07;15.50;;;;;;;5.96;100.00;103142.16;5053703;28;20423;-43
2023/04/18 01:30:54;;;;;;;17.93;16.30;;;;;;;5.95;100.00;103141.31;5051239;28;20451;-49
2023/04/18 01:33:21;;;;;;;18.90;16.87;;;;;;;5.95;100.00;103140.44;5053387;28;20467;-45
2023/04/18 01:35:49;;;;;;;19.80;17.60;;;;;;;5.95;100.00;103136.00;5053429;28;20439;-49
2023/04/18 01:38:17;;;;;;;24.27;18.70;;;;;;;5.95;100.00;103138.66;5053497;28;20963;-45
2023/04/18 01:40:44;;;;;;;28.33;19.60;;;;;;;5.96;100.00;103136.84;5053667;28;20455;-45
2023/04/18 01:43:13;;;;;;;23.70;21.17;;;;;;;5.91;100.00;103131.88;5052810;28;20459;-50
2023/04/18 01:45:41;;;;;;;22.00;19.67;;;;;;;5.92;100.00;103133.56;5053499;28;20565;-45
2023/04/18 01:48:09;;;;;;;24.37;21.23;;;;;;;5.91;100.00;103133.69;5053160;28;20435;-50
2023/04/18 01:50:36;;;;;;;29.10;21.87;;;;;;;5.91;100.00;103142.47;5052377;28;21114;-50
2023/04/18 01:53:04;;;;;;;23.07;20.77;;;;;;;5.89;100.00;103139.09;5052512;28;20466;-43
2023/04/18 01:55:32;;;;;;;22.80;20.57;;;;;;;5.89;100.00;103136.44;5053531;28;20431;-43
2023/04/18 01:57:59;;;;;;;30.13;22.13;;;;;;;5.84;100.00;103140.34;5053313;28;20801;-45
2023/04/18 02:00:28;;;;;;;23.10;20.77;;;;;;;5.81;100.00;103137.91;5052981;28;20447;-45
2023/04/18 02:02:58;;;;;;;23.63;21.10;;;;;;;5.79;100.00;103135.38;5051605;28;20558;-46
2023/04/18 02:05:27;;;;;;;27.57;23.27;;;;;;;5.79;100.00;103137.19;5053045;28;20434;-50
2023/04/18 02:07:54;;;;;;;29.07;22.33;;;;;;;5.78;100.00;103138.13;5052973;28;20435;-45
2023/04/18 02:10:22;;;;;;;29.23;24.53;;;;;;;5.76;100.00;103138.25;5052866;28;20545;-45
2023/04/18 02:12:50;;;;;;;26.10;22.97;;;;;;;5.72;100.00;103135.91;5052225;28;20554;-44
2023/04/18 02:15:18;;;;;;;24.00;21.60;;;;;;;5.72;100.00;103139.41;5052850;28;20435;-45
2023/04/18 02:17:47;;;;;;;24.47;22.07;;;;;;;5.71;100.00;103137.69;5052959;28;20887;-46
2023/04/18 02:20:15;;;;;;;26.00;23.20;;;;;;;5.67;100.00;103138.03;5052941;28;20431;-43
2023/04/18 02:22:43;;;;;;;27.17;21.40;;;;;;;5.65;100.00;103135.47;5052104;28;20466;-45
2023/04/18 02:25:11;;;;;;;25.77;23.07;;;;;;;5.59;100.00;103142.03;5052872;28;20427;-46
2023/04/18 02:27:38;;;;;;;30.97;23.13;;;;;;;5.56;100.00;103138.75;5052580;28;20439;-44
2023/04/18 02:30:07;;;;;;;26.13;22.70;;;;;;;5.52;100.00;103135.50;5052337;28;20493;-51
2023/04/18 02:32:35;;;;;;;25.87;23.30;;;;;;;5.48;100.00;103138.44;5048976;28;20533;-46
2023/04/18 02:35:05;;;;;;;28.13;22.77;;;;;;;5.45;100.00;103130.72;5052480;28;20511;-48
2023/04/18 02:37:32;;;;;;;24.73;22.20;;;;;;;5.46;100.00;103129.78;5052432;28;20446;-44
2023/04/18 02:40:00;;;;;;;25.13;22.43;;;;;;;5.43;100.00;103141.41;5052388;28;20442;-45
2023/04/18 02:42:28;;;;;;;23.27;20.83;;;;;;;5.42;100.00;103145.00;5051667;28;20455;-49
2023/04/18 02:44:55;;;;;;;24.80;19.10;;;;;;;5.44;100.00;103143.09;5052233;28;20434;-45
2023/04/18 02:47:23;;;;;;;22.33;20.03;;;;;;;5.46;100.00;103148.28;5052242;28;20828;-43
2023/04/18 02:49:51;;;;;;;21.23;19.27;;;;;;;5.47;100.00;103145.53;5051609;28;20932;-43
2023/04/18 02:52:20;;;;;;;23.07;21.00;;;;;;;5.49;100.00;103138.34;5051135;28;20475;-50
2023/04/18 02:54:47;;;;;;;21.77;19.77;;;;;;;5.51;100.00;103146.16;5052257;28;20439;-47
2023/04/18 02:57:15;;;;;;;20.43;18.53;;;;;;;5.53;100.00;103141.59;5051946;28;20940;-47
2023/04/18 02:59:42;;;;;;;22.10;19.80;;;;;;;5.55;100.00;103151.13;5052084;28;20427;-48
2023/04/18 03:02:10;;;;;;;25.33;19.97;;;;;;;5.57;100.00;103156.34;5050959;28;20845;-50
2023/04/18 03:04:38;;;;;;;19.80;18.00;;;;;;;5.57;100.00;103151.03;5051857;28;20937;-52
2023/04/18 03:07:06;;;;;;;20.20;18.20;;;;;;;5.58;100.00;103147.47;5052002;28;20517;-46
2023/04/18 03:09:35;;;;;;;21.40;19.30;;;;;;;5.63;100.00;103147.13;5051814;28;20432;-46
2023/04/18 03:12:02;;;;;;;20.97;18.80;;;;;;;5.67;100.00;103138.88;5051084;28;20467;-46
2023/04/18 03:14:30;;;;;;;22.13;19.93;;;;;;;5.72;100.00;103149.97;5051925;28;20427;-47
2023/04/18 03:16:58;;;;;;;20.30;18.27;;;;;;;5.77;100.00;103152.31;5051559;28;20435;-48
2023/04/18 03:19:25;;;;;;;19.40;17.63;;;;;;;5.81;100.00;103151.16;5051382;28;20416;-46
2023/04/18 03:21:53;;;;;;;19.40;17.50;;;;;;;5.81;100.00;103149.34;5050911;28;20885;-45
2023/04/18 03:24:21;;;;;;;19.57;17.67;;;;;;;5.82;100.00;103152.84;5051743;28;20423;-48
2023/04/18 03:26:50;;;;;;;20.87;18.80;;;;;;;5.80;100.00;103155.59;5051886;28;20489;-45
2023/04/18 03:29:18;;;;;;;20.10;18.07;;;;;;;5.79;100.00;103151.25;5050823;28;20440;-44
2023/04/18 03:31:46;;;;;;;19.30;17.37;;;;;;;5.77;100.00;103157.59;5049139;28;20467;-46
2023/04/18 03:34:13;;;;;;;18.80;16.87;;;;;;;5.77;100.00;103158.44;5051807;28;20474;-48
2023/04/18 03:36:41;;;;;;;18.43;16.83;;;;;;;5.76;100.00;103162.06;5051470;28;20945;-48
2023/04/18 03:39:09;;;;;;;29.00;26.07;;;;;;;5.73;100.00;103158.78;5051781;28;20434;-46
2023/04/18 03:41:37;;;;;;;32.13;28.60;;;;;;;5.71;100.00;103166.81;5050924;28;20474;-45
2023/04/18 03:44:06;;;;;;;26.20;23.17;;;;;;;5.66;100.00;103168.94;5051673;28;20485;-46
2023/04/18 03:46:33;;;;;;;25.53;21.10;;;;;;;5.67;100.00;103170.66;5051588;28;20434;-45
2023/04/18 03:49:01;;;;;;;18.90;17.00;;;;;;;5.65;100.00;103169.03;5051220;28;20431;-45
2023/04/18 03:51:33;;;;;;;20.87;17.43;;;;;;;5.65;100.00;103164.59;5050824;28;20471;-46
2023/04/18 03:54:01;;;;;;;20.40;18.60;;;;;;;5.65;100.00;103171.69;5051708;28;20467;-46
2023/04/18 03:56:29;;;;;;;20.00;18.23;;;;;;;5.63;100.00;103174.44;5051338;28;20431;-44
2023/04/18 03:58:57;;;;;;;19.80;18.20;;;;;;;5.64;100.00;103173.50;5051492;28;20458;-43
2023/04/18 04:01:26;;;;;;;21.07;18.20;;;;;;;5.59;100.00;103173.81;5046767;28;20984;-47
2023/04/18 04:03:54;;;;;;;18.10;16.57;;;;;;;5.57;100.00;103169.56;5051155;28;20427;-45
2023/04/18 04:06:22;;;;;;;17.40;15.87;;;;;;;5.56;100.00;103175.81;5051277;28;20963;-47
2023/04/18 04:08:50;;;;;;;16.77;15.50;;;;;;;5.51;100.00;103181.44;5051411;28;20438;-43
2023/04/18 04:11:17;;;;;;;18.60;16.50;;;;;;;5.50;100.00;103178.88;5050537;28;20554;-42
2023/04/18 04:13:45;;;;;;;17.50;15.90;;;;;;;5.47;100.00;103179.09;5054187;28;20478;-45
2023/04/18 04:16:13;;;;;;;18.10;16.00;;;;;;;5.43;100.00;103181.13;5055022;28;20434;-49
2023/04/18 04:18:42;;;;;;;18.73;16.97;;;;;;;5.43;100.00;103181.13;5055254;28;20427;-46
2023/04/18 04:21:10;;;;;;;18.80;17.10;;;;;;;5.43;100.00;103174.97;5054995;28;20542;-45
2023/04/18 04:23:37;;;;;;;18.17;16.47;;;;;;;5.47;100.00;103181.72;5050017;28;20471;-44
2023/04/18 04:26:05;;;;;;;17.20;15.70;;;;;;;5.51;100.00;103183.22;5055021;28;20431;-47
2023/04/18 04:28:34;;;;;;;19.43;17.20;;;;;;;5.54;100.00;103183.88;5055000;28;20431;-46
2023/04/18 04:31:05;;;;;;;17.30;15.90;;;;;;;5.56;100.00;103189.91;5054692;28;20972;-45
2023/04/18 04:33:33;;;;;;;18.60;16.80;;;;;;;5.71;100.00;103188.00;5049990;28;20481;-49
2023/04/18 04:36:02;;;;;;;19.37;17.37;;;;;;;5.76;100.00;103190.34;5054866;28;20458;-47
2023/04/18 04:38:30;;;;;;;19.73;16.87;;;;;;;5.80;100.00;103192.66;5054814;28;20466;-43
2023/04/18 04:40:58;;;;;;;18.77;17.03;;;;;;;5.85;100.00;103190.59;5054616;28;20451;-46
2023/04/18 04:43:27;;;;;;;18.70;16.93;;;;;;;5.93;100.00;103196.19;5053900;28;20524;-48
2023/04/18 04:45:56;;;;;;;18.37;16.70;;;;;;;6.01;100.00;103193.84;5054804;28;20844;-48
2023/04/18 04:48:24;;;;;;;18.90;17.07;;;;;;;6.10;100.00;103195.00;5054496;28;20438;-45
2023/04/18 04:50:53;;;;;;;28.37;19.83;;;;;;;6.17;100.00;103201.56;5054478;28;20455;-52
2023/04/18 04:53:23;;;;;;;19.80;18.00;;;;;;;6.56;100.00;103208.47;5053723;28;20575;-48
2023/04/18 04:55:51;;;;;;;19.47;17.97;;;;;;;7.08;100.00;103209.00;5054224;28;20840;-43
2023/04/18 04:58:19;;;;;;;20.07;18.17;;;;;;;7.46;100.00;103197.31;5054583;28;20802;-44
2023/04/18 05:00:46;;;;;;;21.00;18.70;;;;;;;7.53;100.00;103196.72;5054355;28;20501;-47
2023/04/18 05:03:14;;;;;;;21.80;19.80;;;;;;;7.87;100.00;103210.91;5041391;28;20475;-44
2023/04/18 05:05:42;;;;;;;20.70;18.90;;;;;;;8.27;100.00;103193.56;5054134;28;20435;-46
2023/04/18 05:08:10;;;;;;;19.63;17.93;;;;;;;8.68;100.00;103194.72;5054113;28;20435;-46
2023/04/18 05:10:40;;;;;;;19.80;17.97;;;;;;;8.95;100.00;103195.13;5053900;28;20459;-51
2023/04/18 05:13:08;;;;;;;18.77;17.17;;;;;;;9.37;100.00;103188.88;5053567;28;20996;-45
2023/04/18 05:15:35;;;;;;;18.83;17.23;;;;;;;9.48;100.00;103187.13;5054365;28;20430;-47
2023/04/18 05:18:03;;;;;;;17.67;15.93;;;;;;;9.63;100.00;103189.31;5053891;28;20439;-43
2023/04/18 05:20:31;;;;;;;18.40;16.60;;;;;;;10.09;100.00;103188.03;5053906;28;20487;-48
2023/04/18 05:22:59;;;;;;;16.73;15.27;;;;;;;10.76;100.00;103181.06;5052558;28;20471;-49
2023/04/18 05:25:28;;;;;;;18.10;16.27;;;;;;;11.31;100.00;103179.53;5053756;28;20438;-47
2023/04/18 05:27:57;;;;;;;17.63;16.20;;;;;;;11.60;100.00;103180.34;5053903;28;20470;-46
2023/04/18 05:30:25;;;;;;;17.03;15.40;;;;;;;11.46;100.00;103179.94;5053722;28;20490;-44
2023/04/18 05:32:53;;;;;;;16.40;14.73;;;;;;;11.64;100.00;103184.41;5052965;28;20482;-46
2023/04/18 05:35:20;;;;;;;15.83;14.40;;;;;;;11.71;100.00;103191.88;5053506;28;20555;-43
2023/04/18 05:37:48;;;;;;;15.43;14.03;;;;;;;11.74;100.00;103178.22;5053843;28;20824;-48
2023/04/18 05:40:16;;;;;;;16.00;14.60;;;;;;;11.65;100.00;103188.75;5053739;28;20443;-49
2023/04/18 05:42:43;;;;;;;14.93;13.63;;;;;;;12.41;99.60;103186.81;5052836;28;20462;-44
2023/04/18 05:45:12;;;;;;;15.60;14.10;;;;;;;12.46;96.39;103189.00;5053468;28;20641;-47
2023/04/18 05:47:40;;;;;;;14.93;13.77;;;;;;;12.28;93.99;103194.31;5053389;28;20778;-47
2023/04/18 05:50:09;;;;;;;16.57;14.97;;;;;;;12.50;98.27;103188.59;5053214;28;20435;-50
2023/04/18 05:52:37;;;;;;;16.73;14.30;;;;;;;13.08;93.11;103194.38;5052741;28;20467;-47
2023/04/18 05:55:05;;;;;;;14.33;13.07;;;;;;;13.01;85.78;103195.97;5053209;28;21010;-45
2023/04/18 05:57:32;;;;;;;14.17;12.90;;;;;;;13.20;87.57;103203.06;5053278;28;20485;-46
2023/04/18 06:00:00;;;;;;;14.13;12.80;;;;;;;13.16;84.78;103199.00;5053212;28;20431;-43
2023/04/18 06:02:29;;;;;;;13.00;12.00;;;;;;;12.84;85.01;103195.97;5027578;28;20486;-45
2023/04/18 06:04:57;;;;;;;13.23;12.03;;;;;;;12.97;82.78;103194.59;5053027;28;20459;-47
2023/04/18 06:07:25;;;;;;;14.33;13.20;;;;;;;13.19;82.93;103183.47;5053193;28;20431;-48
2023/04/18 06:09:53;;;;;;;15.30;12.40;;;;;;;13.54;82.67;103192.44;5053030;28;20497;-46
2023/04/18 06:12:21;;;;;;;11.87;10.80;;;;;;;13.13;75.08;103188.59;5052283;28;20467;-47
2023/04/18 06:14:50;;;;;;;11.60;10.67;;;;;;;13.16;76.45;103199.84;5052694;28;20475;-47
2023/04/18 06:17:18;;;;;;;14.97;13.77;;;;;;;12.51;78.77;103192.09;5052833;28;20439;-50
2023/04/18 06:19:47;;;;;;;12.73;11.60;;;;;;;12.35;82.83;103195.44;5052769;28;20435;-46
2023/04/18 06:22:14;;;;;;;14.73;13.53;;;;;;;11.67;87.82;103196.63;5052005;28;20444;-43
2023/04/18 06:24:42;;;;;;;14.70;13.20;;;;;;;11.06;97.98;103198.78;5052712;28;20441;-43
2023/04/18 06:27:09;;;;;;;14.53;13.23;;;;;;;11.00;98.33;103196.69;5052577;28;20431;-44
2023/04/18 06:29:55;;;;;;;15.23;14.03;;;;;;;10.52;100.00;103192.13;5052575;28;20441;-45
2023/04/18 06:32:22;;;;;;;13.30;12.30;;;;;;;10.22;100.00;103204.66;5052059;28;20844;-42
2023/04/18 06:34:51;;;;;;;14.70;13.23;;;;;;;9.66;100.00;103205.03;5051906;28;20825;-44
2023/04/18 06:37:19;;;;;;;15.20;13.60;;;;;;;9.90;100.00;103202.09;5052505;28;20538;-45
2023/04/18 06:39:47;;;;;;;16.67;15.13;;;;;;;9.53;100.00;103207.06;5052410;28;20445;-42
2023/04/18 06:42:15;;;;;;;14.10;12.90;;;;;;;9.31;100.00;103217.84;5051683;28;20467;-46
2023/04/18 06:44:42;;;;;;;14.73;13.40;;;;;;;9.36;100.00;103227.13;5052498;28;20424;-50
2023/04/18 06:47:11;;;;;;;15.93;14.53;;;;;;;9.18;100.00;103215.34;5052517;28;20431;-45
2023/04/18 06:49:38;;;;;;;18.67;15.93;;;;;;;9.28;100.00;103226.94;5052293;28;20439;-46
2023/04/18 06:52:08;;;;;;;16.77;15.03;;;;;;;9.34;100.00;103214.91;5051496;28;20455;-49
2023/04/18 06:54:35;;;;;;;16.23;14.80;;;;;;;9.40;100.00;103222.41;5052019;28;20475;-46
2023/04/18 06:57:03;;;;;;;18.90;14.53;;;;;;;9.49;100.00;103218.97;5052407;28;20459;-43
2023/04/18 06:59:31;;;;;;;17.13;15.33;;;;;;;9.60;100.00;103218.03;5052236;28;20705;-45
2023/04/18 07:01:58;;;;;;;17.20;15.03;;;;;;;9.63;100.00;103234.63;5048576;28;20482;-44
2023/04/18 07:04:26;;;;;;;14.90;13.50;;;;;;;9.67;100.00;103221.88;5052007;28;20463;-45
2023/04/18 07:06:54;;;;;;;16.27;14.77;;;;;;;9.83;100.00;103224.91;5051882;28;20881;-44
2023/04/18 07:09:23;;;;;;;16.87;15.17;;;;;;;9.99;100.00;103226.13;5052108;28;20431;-43
2023/04/18 07:11:51;;;;;;;17.60;15.80;;;;;;;10.16;100.00;103234.50;5051549;28;20460;-47
2023/04/18 07:14:22;;;;;;;16.17;14.70;;;;;;;10.28;100.00;103220.97;5051242;28;20536;-45
2023/04/18 07:16:49;;;;;;;16.67;15.07;;;;;;;10.36;100.00;103217.63;5051918;28;20424;-45
2023/04/18 07:19:17;;;;;;;16.90;15.30;;;;;;;10.49;100.00;103221.75;5051790;28;20964;-47
2023/04/18 07:21:45;;;;;;;16.17;14.30;;;;;;;10.36;100.00;103222.97;5051430;28;20451;-47
2023/04/18 07:24:12;;;;;;;14.97;13.50;;;;;;;10.51;100.00;103229.63;5051209;28;20824;-46
2023/04/18 07:26:42;;;;;;;23.33;15.60;;;;;;;10.52;100.00;103229.47;5051591;28;20427;-50
2023/04/18 07:29:10;;;;;;;15.00;13.60;;;;;;;10.42;100.00;103228.59;5051704;28;20450;-44
2023/04/18 07:31:38;;;;;;;15.50;14.00;;;;;;;10.31;100.00;103225.19;5051285;28;20462;-51
2023/04/18 07:34:05;;;;;;;14.87;13.50;;;;;;;10.39;100.00;103233.38;5044903;28;20475;-46
2023/04/18 07:36:33;;;;;;;14.60;13.17;;;;;;;10.46;100.00;103235.34;5051756;28;20903;-44
2023/04/18 07:39:01;;;;;;;17.90;13.90;;;;;;;10.54;100.00;103229.34;5051576;28;20431;-43
2023/04/18 07:41:29;;;;;;;15.90;14.50;;;;;;;10.70;100.00;103237.66;5051451;28;20469;-46
2023/04/18 07:43:58;;;;;;;17.23;15.60;;;;;;;10.88;100.00;103232.50;5050950;28;20517;-47
2023/04/18 07:46:26;;;;;;;15.80;14.17;;;;;;;10.92;100.00;103224.09;5051489;28;20534;-49
2023/04/18 07:48:54;;;;;;;14.30;12.80;;;;;;;10.92;94.02;103225.91;5054940;28;21006;-47
2023/04/18 07:51:24;;;;;;;15.40;14.10;;;;;;;11.09;91.62;103227.88;5055547;28;20451;-44
2023/04/18 07:53:51;;;;;;;15.13;13.73;;;;;;;11.16;91.93;103226.34;5055289;28;20828;-51
2023/04/18 07:56:19;;;;;;;14.53;13.23;;;;;;;11.14;88.74;103225.63;5055544;28;20474;-48
2023/04/18 07:58:47;;;;;;;14.80;13.43;;;;;;;11.25;87.40;103232.69;5055555;28;20466;-47
2023/04/18 08:01:17;;;;;;;13.90;12.60;;;;;;;11.12;79.60;103235.63;5055158;28;20461;-48
2023/04/18 08:03:45;;;;;;;15.70;14.17;;;;;;;11.19;78.04;103231.41;5055152;28;20590;-47
2023/04/18 08:06:13;;;;;;;14.30;13.10;;;;;;;11.06;76.68;103236.19;5055503;28;20827;-47
2023/04/18 08:08:41;;;;;;;15.50;14.20;;;;;;;11.12;77.15;103230.28;5055231;28;20436;-45
2023/04/18 08:11:09;;;;;;;16.00;14.40;;;;;;;11.20;83.75;103240.28;5055066;28;20995;-47
2023/04/18 08:13:36;;;;;;;14.97;13.67;;;;;;;11.25;83.76;103241.53;5054440;28;20462;-51
2023/04/18 08:16:04;;;;;;;15.70;14.20;;;;;;;11.33;78.69;103246.16;5055289;28;20506;-47
2023/04/18 08:18:33;;;;;;;14.93;13.53;;;;;;;11.48;80.45;103245.59;5055120;28;20465;-49
2023/04/18 08:21:01;;;;;;;15.77;13.90;;;;;;;11.40;78.39;103242.81;5055121;28;20447;-48
2023/04/18 08:23:28;;;;;;;14.70;13.40;;;;;;;11.49;77.53;103238.44;5054392;28;20458;-47
2023/04/18 08:25:56;;;;;;;16.37;14.87;;;;;;;11.49;74.85;103249.13;5055011;28;20451;-46
2023/04/18 08:28:24;;;;;;;15.10;13.60;;;;;;;11.36;73.94;103257.41;5054765;28;20442;-50
2023/04/18 08:30:53;;;;;;;16.37;14.67;;;;;;;11.40;72.52;103264.19;5055160;28;20913;-46
2023/04/18 08:33:22;;;;;;;16.43;14.50;;;;;;;11.41;74.14;103249.81;5089939;23;20478;-46
2023/04/18 08:35:51;;;;;;;13.50;12.20;;;;;;;11.31;67.68;103270.38;5074747;28;20470;-47
2023/04/18 08:38:19;;;;;;;13.57;12.17;;;;;;;11.36;63.27;103267.25;5074883;28;20438;-48
2023/04/18 08:40:47;;;;;;;13.43;12.33;;;;;;;11.30;61.68;103252.63;5074531;28;20436;-50
2023/04/18 08:43:15;;;;;;;14.10;12.60;;;;;;;11.43;61.38;103258.56;5074132;28;20816;-45
2023/04/18 08:45:44;;;;;;;13.80;12.50;;;;;;;11.28;60.77;103275.13;5074851;28;20463;-50
2023/04/18 08:48:12;;;;;;;15.23;13.90;;;;;;;11.38;60.18;103260.78;5074723;28;20426;-45
2023/04/18 08:50:40;;;;;;;14.70;13.40;;;;;;;11.56;61.03;103268.94;5074649;28;20434;-48
2023/04/18 08:53:10;;;;;;;15.20;13.80;;;;;;;11.79;60.81;103264.19;5074225;28;20450;-46
2023/04/18 08:55:37;;;;;;;14.87;13.37;;;;;;;11.55;59.78;103269.94;5069224;28;20889;-52
2023/04/18 08:58:06;;;;;;;14.33;12.90;;;;;;;11.45;58.82;103264.59;5074235;28;20430;-51
2023/04/18 09:00:34;;;;;;;15.20;13.80;;;;;;;11.43;59.90;103258.56;5074298;28;20495;-49
2023/04/18 09:03:02;;;;;;;16.47;14.77;;;;;;;11.46;59.29;103263.63;5074049;28;20453;-46
2023/04/18 09:05:30;;;;;;;15.33;13.80;;;;;;;11.74;60.04;103271.78;5073740;28;20524;-49
2023/04/18 09:07:58;;;;;;;15.83;14.33;;;;;;;11.72;58.94;103268.41;5074136;28;20441;-52
2023/04/18 09:10:29;;;;;;;16.57;13.80;;;;;;;11.92;60.05;103264.69;5074234;28;20460;-51
2023/04/18 09:12:58;;;;;;;14.60;13.20;;;;;;;12.00;57.89;103263.00;5074113;28;20461;-48
2023/04/18 09:15:27;;;;;;;14.97;13.57;;;;;;;11.96;58.17;103266.94;5073594;28;20636;-46
2023/04/18 09:17:58;;;;;;;14.77;13.47;;;;;;;12.25;59.91;103266.84;5074081;28;20470;-45
2023/04/18 09:20:29;;;;;;;20.33;15.20;;;;;;;12.44;60.68;103258.75;5073814;28;20435;-47
2023/04/18 09:22:59;;;;;;;15.23;13.73;;;;;;;12.45;61.07;103268.50;5074010;28;20843;-46
2023/04/18 09:25:33;;;;;;;16.63;15.03;;;;;;;12.53;59.51;103281.13;5073467;28;20832;-46
2023/04/18 09:28:02;;;;;;;16.50;13.73;;;;;;;12.44;56.64;103264.13;5074113;28;20790;-50
2023/04/18 09:30:32;;;;;;;14.17;12.77;;;;;;;12.41;56.48;103264.41;5073916;28;20438;-48
2023/04/18 09:33:02;;;;;;;16.47;14.87;;;;;;;12.54;57.04;103262.25;5073247;28;20462;-45
2023/04/18 09:35:33;;;;;;;15.37;13.87;;;;;;;12.58;54.50;103268.97;5068945;28;20459;-45
2023/04/18 09:38:01;;;;;;;16.97;15.20;;;;;;;12.51;53.33;103259.88;5073824;28;20466;-51
2023/04/18 09:40:31;;;;;;;15.40;14.00;;;;;;;12.44;55.92;103260.59;5073561;28;20442;-47
2023/04/18 09:42:59;;;;;;;15.67;14.07;;;;;;;12.61;52.17;103257.97;5073456;28;20450;-46
2023/04/18 09:45:27;;;;;;;15.00;13.53;;;;;;;12.68;52.08;103253.72;5072797;28;21006;-43
2023/04/18 09:47:55;;;;;;;15.87;14.43;;;;;;;12.61;51.38;103252.59;5073664;28;20791;-45
2023/04/18 09:50:22;;;;;;;16.67;14.97;;;;;;;12.57;51.61;103269.13;5073483;28;20483;-46
2023/04/18 09:52:50;;;;;;;15.67;14.27;;;;;;;12.65;52.04;103254.00;5073129;28;20454;-49
2023/04/18 09:55:19;;;;;;;13.80;12.50;;;;;;;12.81;52.74;103249.84;5072804;28;20470;-43
2023/04/18 09:57:48;;;;;;;16.27;14.57;;;;;;;13.15;53.33;103256.25;5073153;28;20470;-43
2023/04/18 10:00:23;;;;;;;16.53;14.53;;;;;;;13.14;55.63;103262.63;5073558;28;20452;-51
2023/04/18 10:02:56;;;;;;;17.53;14.80;;;;;;;13.17;56.25;103255.09;5073037;28;20442;-46
2023/04/18 10:05:26;;;;;;;15.17;13.77;;;;;;;13.21;56.48;103252.94;5072753;28;20458;-45
2023/04/18 10:07:55;;;;;;;16.47;14.93;;;;;;;13.17;57.79;103248.91;5073172;28;20422;-44
2023/04/18 10:10:23;;;;;;;15.53;14.03;;;;;;;13.12;56.21;103260.06;5072025;28;20518;-44
2023/04/18 10:12:54;;;;;;;18.63;13.57;;;;;;;13.00;52.64;103247.00;5072887;28;20534;-47
2023/04/18 10:15:23;;;;;;;13.97;12.53;;;;;;;13.15;54.20;103250.88;5072687;28;20828;-46
2023/04/18 10:17:53;;;;;;;14.70;13.10;;;;;;;13.11;55.11;103254.88;5072762;28;21013;-45
2023/04/18 10:20:31;;;;;;;18.60;13.50;;;;;;;13.01;56.09;103264.78;5072810;28;20426;-43
2023/04/18 10:23:00;;;;;;;13.67;12.50;;;;;;;13.06;54.89;103247.25;5072446;28;20446;-47
2023/04/18 10:25:49;;;;;;;14.00;12.60;;;;;;;13.09;51.20;103235.41;5072302;28;20812;-48
2023/04/18 10:28:20;;;;;;;14.43;12.67;;;;;;;13.15;52.57;103253.56;5067055;28;20444;-45
2023/04/18 10:31:01;;;;;;;15.83;13.10;;;;;;;13.32;51.11;103251.91;5072722;28;20431;-47
2023/04/18 10:33:36;;;;;;;14.70;13.30;;;;;;;13.19;49.37;103254.94;5072214;28;20465;-47
2023/04/18 10:36:17;;;;;;;12.87;11.83;;;;;;;13.14;48.99;103250.03;5069968;28;20458;-52
2023/04/18 10:38:50;;;;;;;14.53;12.80;;;;;;;13.06;48.91;103260.66;5072578;28;20450;-47
2023/04/18 10:41:22;;;;;;;13.40;12.20;;;;;;;13.50;50.96;103247.38;5072316;28;20437;-42
2023/04/18 10:44:27;;;;;;;12.57;11.43;;;;;;;13.29;50.61;103243.16;5072449;28;20486;-47
2023/04/18 10:47:31;;;;;;;12.20;11.10;;;;;;;13.19;50.13;103258.47;5072344;28;20446;-45
2023/04/18 10:50:03;;;;;;;17.00;13.03;;;;;;;13.31;51.59;103264.44;5072161;28;20462;-42
2023/04/18 10:52:33;;;;;;;13.23;11.97;;;;;;;13.42;50.76;103250.81;5072005;28;20446;-45
2023/04/18 10:55:17;;;;;;;15.60;12.30;;;;;;;13.10;50.11;103263.91;5071672;28;20458;-48
2023/04/18 10:57:46;;;;;;;13.53;12.17;;;;;;;13.39;50.24;103261.84;5070605;28;20967;-43
2023/04/18 11:00:16;;;;;;;12.70;11.40;;;;;;;13.66;50.03;103247.47;5072038;28;20426;-45
2023/04/18 11:02:52;;;;;;;13.67;12.37;;;;;;;13.75;48.38;103255.44;5071790;28;20492;-45
2023/04/18 11:05:24;;;;;;;13.80;12.50;;;;;;;13.69;48.10;103252.53;5070753;28;20472;-45
2023/04/18 11:07:53;;;;;;;13.90;12.70;;;;;;;13.76;49.47;103264.31;5072080;28;20429;-45
2023/04/18 11:10:22;;;;;;;14.80;13.50;;;;;;;13.79;50.60;103247.94;5071888;28;20935;-45
2023/04/18 11:12:50;;;;;;;14.03;12.60;;;;;;;13.49;49.88;103249.19;5071339;28;20454;-44
2023/04/18 11:15:21;;;;;;;15.40;12.83;;;;;;;13.27;50.84;103249.66;5071349;28;20490;-48
2023/04/18 11:17:57;;;;;;;14.93;13.53;;;;;;;13.28;50.43;103259.41;5071691;28;20561;-51